createdAt,value
2022-08-17T00:01:52.136Z,60.70
2022-08-17T00:04:21.619Z,60.50
2022-08-17T00:06:53.464Z,60.90
2022-08-17T00:09:21.794Z,60.70
2022-08-17T00:12:41.839Z,60.90
2022-08-17T00:14:39.532Z,60.90
2022-08-17T00:17:08.077Z,60.70
2022-08-17T00:19:36.444Z,60.70
2022-08-17T00:22:31.706Z,60.90
2022-08-17T00:24:55.931Z,61.10
2022-08-17T00:27:24.374Z,61.10
2022-08-17T00:29:52.752Z,61.00
2022-08-17T00:33:15.239Z,60.90
2022-08-17T00:35:14.127Z,61.10
2022-08-17T00:37:43.879Z,61.30
2022-08-17T00:40:15.283Z,60.90
2022-08-17T00:42:45.316Z,61.10
2022-08-17T00:45:16.199Z,61.10
2022-08-17T00:47:45.226Z,61.00
2022-08-17T00:50:17.536Z,61.10
2022-08-17T00:52:53.567Z,61.20
2022-08-17T00:55:24.038Z,61.30
2022-08-17T00:57:55.672Z,61.30
2022-08-17T01:00:28.311Z,61.10
2022-08-17T01:03:00.259Z,61.30
2022-08-17T01:05:31.253Z,61.30
2022-08-17T01:08:03.622Z,61.40
2022-08-17T01:11:00.627Z,61.30
2022-08-17T01:13:27.831Z,61.30
2022-08-17T01:16:00.198Z,61.40
2022-08-17T01:18:29.293Z,61.40
2022-08-17T01:20:59.932Z,61.40
2022-08-17T01:23:30.557Z,61.40
2022-08-17T01:26:02.498Z,61.60
2022-08-17T01:28:53.778Z,61.60
2022-08-17T01:31:25.958Z,61.60
2022-08-17T01:33:54.631Z,61.80
2022-08-17T01:36:23.054Z,61.80
2022-08-17T01:38:52.964Z,61.90
2022-08-17T01:41:23.987Z,62.00
2022-08-17T01:43:56.574Z,62.10
2022-08-17T01:46:27.319Z,62.10
2022-08-17T01:48:57.940Z,62.00
2022-08-17T01:51:29.417Z,62.10
2022-08-17T01:54:01.754Z,62.10
2022-08-17T01:56:31.844Z,62.30
2022-08-17T01:59:00.197Z,62.20
2022-08-17T02:01:31.833Z,62.30
2022-08-17T02:04:01.925Z,62.50
2022-08-17T02:06:53.787Z,62.40
2022-08-17T02:09:22.284Z,62.40
2022-08-17T02:11:52.370Z,62.40
2022-08-17T02:14:22.831Z,62.50
2022-08-17T02:16:51.390Z,62.40
2022-08-17T02:19:19.845Z,62.30
2022-08-17T02:21:50.675Z,62.40
2022-08-17T02:24:58.499Z,62.50
2022-08-17T02:27:12.755Z,62.50
2022-08-17T02:29:41.123Z,62.40
2022-08-17T02:32:28.243Z,62.50
2022-08-17T02:34:57.373Z,62.50
2022-08-17T02:37:26.557Z,62.50
2022-08-17T02:39:58.357Z,62.50
2022-08-17T02:42:29.202Z,62.50
2022-08-17T02:44:57.607Z,62.40
2022-08-17T02:47:26.923Z,62.40
2022-08-17T02:49:55.995Z,62.50
2022-08-17T02:52:42.893Z,62.40
2022-08-17T02:55:15.869Z,62.50
2022-08-17T02:57:44.533Z,62.40
2022-08-17T03:00:16.296Z,62.40
2022-08-17T03:02:46.019Z,62.40
2022-08-17T03:05:17.539Z,62.40
2022-08-17T03:07:45.942Z,62.50
2022-08-17T03:10:16.515Z,62.40
2022-08-17T03:12:46.436Z,62.50
2022-08-17T03:15:19.294Z,62.40
2022-08-17T03:17:48.262Z,62.40
2022-08-17T03:20:17.472Z,62.50
2022-08-17T03:22:53.511Z,62.60
2022-08-17T03:25:25.675Z,62.60
2022-08-17T03:27:54.567Z,62.60
2022-08-17T03:30:24.314Z,62.40
2022-08-17T03:32:56.294Z,63.30
2022-08-17T03:35:27.425Z,62.40
2022-08-17T03:38:00.754Z,62.40
2022-08-17T03:40:55.841Z,62.30
2022-08-17T03:43:22.129Z,62.50
2022-08-17T03:46:27.384Z,62.20
2022-08-17T03:49:14.598Z,62.40
2022-08-17T03:52:00.327Z,62.20
2022-08-17T03:54:46.423Z,62.10
2022-08-17T03:57:16.508Z,62.20
2022-08-17T03:59:45.343Z,62.10
2022-08-17T04:02:18.865Z,62.30
2022-08-17T04:04:50.925Z,62.20
2022-08-17T04:07:20.646Z,62.20
2022-08-17T04:09:49.828Z,62.20
2022-08-17T04:12:21.507Z,62.20
2022-08-17T04:14:53.740Z,62.30
2022-08-17T04:17:24.723Z,62.40
2022-08-17T04:19:53.808Z,62.40
2022-08-17T04:22:31.938Z,62.30
2022-08-17T04:25:09.035Z,62.40
2022-08-17T04:27:39.006Z,62.40
2022-08-17T04:30:08.691Z,62.40
2022-08-17T04:33:10.466Z,62.50
2022-08-17T04:35:41.350Z,62.40
2022-08-17T04:38:12.077Z,62.60
2022-08-17T04:40:58.164Z,62.60
2022-08-17T04:43:32.450Z,62.80
2022-08-17T04:46:04.795Z,62.70
2022-08-17T04:48:37.531Z,62.70
2022-08-17T04:51:10.441Z,62.90
2022-08-17T04:53:40.310Z,63.00
2022-08-17T04:56:11.867Z,63.20
2022-08-17T04:58:47.973Z,63.40
2022-08-17T05:01:23.470Z,63.40
2022-08-17T05:03:52.997Z,63.60
2022-08-17T05:06:21.725Z,63.50
2022-08-17T05:08:50.433Z,63.50
2022-08-17T05:11:19.000Z,63.60
2022-08-17T05:13:50.360Z,63.60
2022-08-17T05:16:20.256Z,63.60
2022-08-17T05:18:48.802Z,63.50
2022-08-17T05:21:18.256Z,63.40
2022-08-17T05:23:54.729Z,63.20
2022-08-17T05:26:26.752Z,63.20
2022-08-17T05:29:00.583Z,62.80
2022-08-17T05:31:31.931Z,62.80
2022-08-17T05:34:00.409Z,62.80
2022-08-17T05:36:41.622Z,62.80
2022-08-17T05:39:16.523Z,62.60
2022-08-17T05:41:47.264Z,62.60
2022-08-17T05:44:17.744Z,62.80
2022-08-17T05:46:51.018Z,62.40
2022-08-17T05:49:24.373Z,62.40
2022-08-17T05:52:19.849Z,62.20
2022-08-17T05:55:03.968Z,62.20
2022-08-17T05:57:47.477Z,62.40
2022-08-17T06:00:30.556Z,62.20
2022-08-17T06:03:23.647Z,62.10
2022-08-17T06:06:01.474Z,62.10
2022-08-17T06:08:39.711Z,62.30
2022-08-17T06:11:19.998Z,62.20
2022-08-17T06:14:02.831Z,62.40
2022-08-17T06:16:38.780Z,62.50
2022-08-17T06:19:14.087Z,62.40
2022-08-17T06:21:47.616Z,62.40
2022-08-17T06:24:30.075Z,62.40
2022-08-17T06:27:07.810Z,62.30
2022-08-17T06:29:44.041Z,62.20
2022-08-17T06:32:14.604Z,62.20
2022-08-17T06:34:44.822Z,62.20
2022-08-17T06:37:33.545Z,62.20
2022-08-17T06:40:19.173Z,62.20
2022-08-17T06:43:05.792Z,62.20
2022-08-17T06:45:38.403Z,62.20
2022-08-17T06:48:14.292Z,61.90
2022-08-17T06:50:49.114Z,62.20
2022-08-17T06:53:25.272Z,64.30
2022-08-17T06:55:59.969Z,64.90
2022-08-17T06:58:33.456Z,65.90
2022-08-17T07:01:07.143Z,66.60
2022-08-17T07:03:42.832Z,66.60
2022-08-17T07:06:15.807Z,67.20
2022-08-17T07:08:55.309Z,66.60
2022-08-17T07:11:29.191Z,67.80
2022-08-17T07:14:08.395Z,67.70
2022-08-17T07:16:42.331Z,68.70
2022-08-17T07:19:12.142Z,69.40
2022-08-17T07:21:51.746Z,68.00
2022-08-17T07:24:37.419Z,67.60
2022-08-17T07:27:17.576Z,68.70
2022-08-17T07:29:50.749Z,68.90
2022-08-17T07:32:23.870Z,69.10
2022-08-17T07:35:11.317Z,68.40
2022-08-17T07:37:41.095Z,68.40
2022-08-17T07:40:27.160Z,68.40
2022-08-17T07:43:18.740Z,67.60
2022-08-17T07:46:30.576Z,68.30
2022-08-17T07:49:18.110Z,68.90
2022-08-17T07:51:59.964Z,69.10
2022-08-17T07:54:43.913Z,69.00
2022-08-17T07:57:32.694Z,68.40
2022-08-17T08:00:19.483Z,68.60
2022-08-17T08:03:16.132Z,69.30
2022-08-17T08:05:54.016Z,70.00
2022-08-17T08:08:42.475Z,69.00
2022-08-17T08:11:12.785Z,68.40
2022-08-17T08:13:45.187Z,67.90
2022-08-17T08:16:21.045Z,67.60
2022-08-17T08:18:56.723Z,67.00
2022-08-17T08:21:37.651Z,66.00
2022-08-17T08:24:34.905Z,66.20
2022-08-17T08:27:13.966Z,66.40
2022-08-17T08:29:49.382Z,66.20
2022-08-17T08:32:24.951Z,65.70
2022-08-17T08:35:03.381Z,65.80
2022-08-17T08:37:44.366Z,66.10
2022-08-17T08:40:36.464Z,66.80
2022-08-17T08:43:18.323Z,68.60
2022-08-17T08:45:56.765Z,66.60
2022-08-17T08:48:55.717Z,66.70
2022-08-17T08:51:36.304Z,66.40
2022-08-17T08:54:12.831Z,66.00
2022-08-17T08:57:04.984Z,65.50
2022-08-17T08:59:44.242Z,65.40
2022-08-17T09:02:24.034Z,65.20
2022-08-17T09:05:20.359Z,65.10
2022-08-17T09:07:57.405Z,64.90
2022-08-17T09:10:29.504Z,63.90
2022-08-17T09:13:10.184Z,64.20
2022-08-17T09:15:45.585Z,64.20
2022-08-17T09:19:02.934Z,63.90
2022-08-17T09:21:15.549Z,63.70
2022-08-17T09:23:59.792Z,62.40
2022-08-17T09:26:32.522Z,61.20
2022-08-17T09:29:07.406Z,60.40
2022-08-17T09:31:47.057Z,59.10
2022-08-17T09:34:21.370Z,58.90
2022-08-17T09:37:03.786Z,59.00
2022-08-17T09:39:37.662Z,58.50
2022-08-17T09:42:13.133Z,57.90
2022-08-17T09:44:50.501Z,58.00
2022-08-17T09:47:30.658Z,57.50
2022-08-17T09:50:07.417Z,57.20
2022-08-17T09:52:36.534Z,57.00
2022-08-17T09:55:08.073Z,56.30
2022-08-17T09:57:52.345Z,56.20
2022-08-17T10:00:27.791Z,55.90
2022-08-17T10:03:24.265Z,55.10
2022-08-17T10:06:00.174Z,52.40
2022-08-17T10:08:38.042Z,51.50
2022-08-17T10:11:18.641Z,55.30
2022-08-17T10:13:58.743Z,51.90
2022-08-17T10:16:37.444Z,53.10
2022-08-17T10:19:15.333Z,54.70
2022-08-17T10:22:14.622Z,52.00
2022-08-17T10:25:22.149Z,51.00
2022-08-17T10:27:56.104Z,50.10
2022-08-17T10:30:27.705Z,50.50
2022-08-17T10:33:01.253Z,49.90
2022-08-17T10:35:43.049Z,52.10
2022-08-17T10:38:38.365Z,51.90
2022-08-17T10:41:28.303Z,51.40
2022-08-17T10:44:39.802Z,49.80
2022-08-17T10:47:05.127Z,49.50
2022-08-17T10:49:38.878Z,48.50
2022-08-17T10:52:52.601Z,47.90
2022-08-17T10:55:21.571Z,48.60
2022-08-17T10:57:51.304Z,48.10
2022-08-17T11:00:50.796Z,48.80
2022-08-17T11:03:23.781Z,49.00
2022-08-17T11:06:01.376Z,48.90
2022-08-17T11:08:54.295Z,47.50
2022-08-17T11:11:47.553Z,48.70
2022-08-17T11:14:34.985Z,49.90
2022-08-17T11:17:29.366Z,46.30
2022-08-17T11:20:29.278Z,48.70
2022-08-17T11:23:21.928Z,46.80
2022-08-17T11:25:54.911Z,47.40
2022-08-17T11:28:26.966Z,47.50
2022-08-17T11:30:58.288Z,47.70
2022-08-17T11:33:59.934Z,46.70
2022-08-17T11:36:39.961Z,47.40
2022-08-17T11:39:33.583Z,47.20
2022-08-17T11:42:12.004Z,47.00
2022-08-17T11:44:52.890Z,47.40
2022-08-17T11:48:09.040Z,46.20
2022-08-17T11:51:07.072Z,46.50
2022-08-17T11:57:00.254Z,45.90
2022-08-17T12:00:01.650Z,46.10
2022-08-17T12:02:35.289Z,45.40
2022-08-17T12:05:25.417Z,46.00
2022-08-17T12:08:02.351Z,46.30
2022-08-17T12:10:34.437Z,46.00
2022-08-17T12:13:08.146Z,45.40
2022-08-17T12:15:42.542Z,44.30
2022-08-17T12:18:20.911Z,44.70
2022-08-17T12:21:04.419Z,44.50
2022-08-17T12:23:41.843Z,44.10
2022-08-17T12:26:17.772Z,45.40
2022-08-17T12:28:48.080Z,44.20
2022-08-17T12:31:23.088Z,43.70
2022-08-17T12:33:53.026Z,44.00
2022-08-17T12:36:29.659Z,44.50
2022-08-17T12:39:14.058Z,44.40
2022-08-17T12:41:50.283Z,43.80
2022-08-17T12:44:22.266Z,43.00
2022-08-17T12:46:56.044Z,42.80
2022-08-17T12:49:33.318Z,42.70
2022-08-17T12:52:13.195Z,43.50
2022-08-17T12:54:48.045Z,43.10
2022-08-17T12:57:18.991Z,43.30
2022-08-17T12:59:51.566Z,44.00
2022-08-17T13:02:29.216Z,43.90
2022-08-17T13:04:59.762Z,44.40
2022-08-17T13:07:30.326Z,44.50
2022-08-17T13:09:58.738Z,43.60
2022-08-17T13:12:32.134Z,44.00
2022-08-17T13:15:01.334Z,44.10
2022-08-17T13:17:34.804Z,43.70
2022-08-17T13:20:06.245Z,42.90
2022-08-17T13:22:34.691Z,43.00
2022-08-17T13:25:07.477Z,43.70
2022-08-17T13:27:36.404Z,43.40
2022-08-17T13:30:12.592Z,43.30
2022-08-17T13:32:47.302Z,43.90
2022-08-17T13:35:50.699Z,43.20
2022-08-17T13:38:41.973Z,43.40
2022-08-17T13:41:31.398Z,43.90
2022-08-17T13:43:59.801Z,44.40
2022-08-17T13:46:33.428Z,44.60
2022-08-17T13:49:06.922Z,44.60
2022-08-17T13:51:37.304Z,42.60
2022-08-17T13:54:24.501Z,43.00
2022-08-17T13:57:02.072Z,42.80
2022-08-17T13:59:54.929Z,43.60
2022-08-17T14:02:27.644Z,42.80
2022-08-17T14:05:00.742Z,43.10
2022-08-17T14:07:33.914Z,43.10
2022-08-17T14:10:06.174Z,43.40
2022-08-17T14:12:35.921Z,44.30
2022-08-17T14:15:04.699Z,43.70
2022-08-17T14:17:38.467Z,43.60
2022-08-17T14:20:12.266Z,43.00
2022-08-17T14:22:44.277Z,42.60
2022-08-17T14:25:15.700Z,42.50
2022-08-17T14:27:52.916Z,42.50
2022-08-17T14:30:24.333Z,42.90
2022-08-17T14:32:53.280Z,42.90
2022-08-17T14:35:24.578Z,43.00
2022-08-17T14:37:53.751Z,43.20
2022-08-17T14:40:24.950Z,43.40
2022-08-17T14:42:55.378Z,43.10
2022-08-17T14:45:32.003Z,43.30
2022-08-17T14:48:02.819Z,43.30
2022-08-17T14:50:35.379Z,43.60
2022-08-17T14:53:04.699Z,43.90
2022-08-17T14:55:33.707Z,44.00
2022-08-17T14:58:04.032Z,43.60
2022-08-17T15:00:33.270Z,43.30
2022-08-17T15:03:02.736Z,43.80
2022-08-17T15:05:34.749Z,43.90
2022-08-17T15:08:04.697Z,43.90
2022-08-17T15:10:33.852Z,43.80
2022-08-17T15:13:02.453Z,44.30
2022-08-17T15:15:30.981Z,46.90
2022-08-17T15:18:00.221Z,45.30
2022-08-17T15:20:31.577Z,45.90
2022-08-17T15:23:00.329Z,45.50
2022-08-17T15:25:31.918Z,45.20
2022-08-17T15:28:01.548Z,47.30
2022-08-17T15:30:40.447Z,47.60
2022-08-17T15:33:08.799Z,47.30
2022-08-17T15:35:42.919Z,46.80
2022-08-17T15:38:13.124Z,46.50
2022-08-17T15:40:45.158Z,47.00
2022-08-17T15:43:16.022Z,47.30
2022-08-17T15:45:44.631Z,47.60
2022-08-17T15:48:40.734Z,47.80
2022-08-17T15:51:16.047Z,48.10
2022-08-17T15:53:46.489Z,48.40
2022-08-17T15:56:16.306Z,48.60
2022-08-17T15:58:46.792Z,48.60
2022-08-17T16:01:18.761Z,48.70
2022-08-17T16:04:06.895Z,48.80
2022-08-17T16:06:55.711Z,48.90
2022-08-17T16:09:27.081Z,49.10
2022-08-17T16:11:56.250Z,49.30
2022-08-17T16:14:32.335Z,49.40
2022-08-17T16:17:03.571Z,49.50
2022-08-17T16:19:32.590Z,49.70
2022-08-17T16:22:02.421Z,49.80
2022-08-17T16:24:31.524Z,49.80
2022-08-17T16:27:00.132Z,50.10
2022-08-17T16:29:28.807Z,50.30
2022-08-17T16:31:57.519Z,50.30
2022-08-17T16:34:26.487Z,50.40
2022-08-17T16:36:56.446Z,50.50
2022-08-17T16:39:29.250Z,50.60
2022-08-17T16:41:58.481Z,50.70
2022-08-17T16:44:32.260Z,50.70
2022-08-17T16:47:01.038Z,50.90
2022-08-17T16:49:37.130Z,51.00
2022-08-17T16:52:11.372Z,51.10
2022-08-17T16:54:43.748Z,51.20
2022-08-17T16:57:13.032Z,51.20
2022-08-17T16:59:44.970Z,51.20
2022-08-17T17:02:16.747Z,51.40
2022-08-17T17:04:51.739Z,51.50
2022-08-17T17:07:41.761Z,51.40
2022-08-17T17:10:15.341Z,51.50
2022-08-17T17:13:01.318Z,51.60
2022-08-17T17:15:41.550Z,51.70
2022-08-17T17:18:12.751Z,51.60
2022-08-17T17:20:47.501Z,51.70
2022-08-17T17:23:28.569Z,51.80
2022-08-17T17:26:04.554Z,51.80
2022-08-17T17:28:44.311Z,52.10
2022-08-17T17:31:17.448Z,52.20
2022-08-17T17:33:49.050Z,52.60
2022-08-17T17:36:26.870Z,52.40
2022-08-17T17:39:00.462Z,52.40
2022-08-17T17:41:34.537Z,52.40
2022-08-17T17:44:07.665Z,52.60
2022-08-17T17:46:39.763Z,52.50
2022-08-17T17:49:10.382Z,52.60
2022-08-17T17:52:09.454Z,52.60
2022-08-17T17:54:49.212Z,52.60
2022-08-17T17:57:27.776Z,52.90
2022-08-17T18:00:04.623Z,53.20
2022-08-17T18:02:51.194Z,52.90
2022-08-17T18:05:40.342Z,53.10
2022-08-17T18:08:15.749Z,53.20
2022-08-17T18:10:52.324Z,53.20
2022-08-17T18:13:33.382Z,53.20
2022-08-17T18:16:02.001Z,53.30
2022-08-17T18:18:40.895Z,53.40
2022-08-17T18:21:16.812Z,53.40
2022-08-17T18:23:50.962Z,53.50
2022-08-17T18:26:47.036Z,53.60
2022-08-17T18:29:32.451Z,53.50
2022-08-17T18:32:40.178Z,53.70
2022-08-17T18:35:30.265Z,53.70
2022-08-17T18:38:20.635Z,53.80
2022-08-17T18:41:00.196Z,53.70
2022-08-17T18:43:44.340Z,53.90
2022-08-17T18:46:29.624Z,53.90
2022-08-17T18:49:01.194Z,53.80
2022-08-17T18:51:42.336Z,54.00
2022-08-17T18:54:20.952Z,54.10
2022-08-17T18:56:55.087Z,54.20
2022-08-17T18:59:29.893Z,54.00
2022-08-17T19:02:36.131Z,54.00
2022-08-17T19:05:14.493Z,54.00
2022-08-17T19:07:45.263Z,54.10
2022-08-17T19:10:23.336Z,54.00
2022-08-17T19:13:00.235Z,54.00
2022-08-17T19:15:34.504Z,54.10
2022-08-17T19:18:15.098Z,54.10
2022-08-17T19:20:47.389Z,54.30
2022-08-17T19:23:21.493Z,54.30
2022-08-17T19:25:52.509Z,54.40
2022-08-17T19:28:24.280Z,54.40
2022-08-17T19:30:57.858Z,54.50
2022-08-17T19:33:28.019Z,54.60
2022-08-17T19:36:05.950Z,54.60
2022-08-17T19:38:43.500Z,54.70
2022-08-17T19:41:19.034Z,54.70
2022-08-17T19:44:00.276Z,54.80
2022-08-17T19:46:35.816Z,54.90
2022-08-17T19:49:14.700Z,54.90
2022-08-17T19:51:52.122Z,55.70
2022-08-17T19:54:31.097Z,55.20
2022-08-17T19:57:10.691Z,55.20
2022-08-17T19:59:51.992Z,55.60
2022-08-17T20:02:35.091Z,55.80
2022-08-17T20:05:12.119Z,55.90
2022-08-17T20:07:45.745Z,55.80
2022-08-17T20:10:21.738Z,56.30
2022-08-17T20:12:53.235Z,55.80
2022-08-17T20:15:29.697Z,56.20
2022-08-17T20:18:02.348Z,56.10
2022-08-17T20:20:37.884Z,56.10
2022-08-17T20:23:13.214Z,57.00
2022-08-17T20:25:49.178Z,56.40
2022-08-17T20:28:25.023Z,56.30
2022-08-17T20:30:53.773Z,56.50
2022-08-17T20:33:28.635Z,56.70
2022-08-17T20:36:24.170Z,56.50
2022-08-17T20:38:56.275Z,56.90
2022-08-17T20:41:25.946Z,56.70
2022-08-17T20:44:05.907Z,56.70
2022-08-17T20:46:47.555Z,56.50
2022-08-17T20:49:23.695Z,57.20
2022-08-17T20:52:00.917Z,56.80
2022-08-17T20:54:47.865Z,56.50
2022-08-17T20:57:49.131Z,56.80
2022-08-17T21:00:46.825Z,56.90
2022-08-17T21:03:51.055Z,56.40
2022-08-17T21:06:23.164Z,56.60
2022-08-17T21:08:57.749Z,57.00
2022-08-17T21:12:02.765Z,57.00
2022-08-17T21:15:02.982Z,57.10
2022-08-17T21:17:42.099Z,56.70
2022-08-17T21:20:26.317Z,57.30
2022-08-17T21:23:17.297Z,57.20
2022-08-17T21:26:10.524Z,57.30
2022-08-17T21:29:00.709Z,57.40
2022-08-17T21:31:35.974Z,57.40
2022-08-17T21:34:28.242Z,57.60
2022-08-17T21:36:57.864Z,57.50
2022-08-17T21:39:33.646Z,57.00
2022-08-17T21:42:05.884Z,57.80
2022-08-17T21:44:36.568Z,57.80
2022-08-17T21:47:19.362Z,57.90
2022-08-17T21:49:47.872Z,57.70
2022-08-17T21:52:19.387Z,57.90
2022-08-17T21:54:52.210Z,57.90
2022-08-17T21:57:24.431Z,57.90
2022-08-17T21:59:56.239Z,57.60
2022-08-17T22:02:28.350Z,57.90
2022-08-17T22:04:58.711Z,57.70
2022-08-17T22:07:40.831Z,58.00
2022-08-17T22:10:27.037Z,58.10
2022-08-17T22:13:16.617Z,58.20
2022-08-17T22:15:48.552Z,58.00
2022-08-17T22:18:22.368Z,57.80
2022-08-17T22:20:52.797Z,58.20
2022-08-17T22:23:45.284Z,58.00
2022-08-17T22:26:16.671Z,58.10
2022-08-17T22:28:49.508Z,58.10
2022-08-17T22:31:19.278Z,58.10
2022-08-17T22:33:49.502Z,58.30
2022-08-17T22:36:29.229Z,58.20
2022-08-17T22:38:59.292Z,58.30
2022-08-17T22:41:40.676Z,58.20
2022-08-17T22:44:18.254Z,58.40
2022-08-17T22:46:54.577Z,58.50
2022-08-17T22:49:29.311Z,58.20
2022-08-17T22:52:18.610Z,58.20
2022-08-17T22:55:09.398Z,58.30
2022-08-17T22:57:55.580Z,58.50
2022-08-17T23:00:34.807Z,58.40
2022-08-17T23:03:12.672Z,58.40
2022-08-17T23:05:43.634Z,58.60
2022-08-17T23:08:12.915Z,58.50
2022-08-17T23:10:42.494Z,58.60
2022-08-17T23:13:12.903Z,58.70
2022-08-17T23:15:43.184Z,58.60
2022-08-17T23:18:11.558Z,58.70
2022-08-17T23:20:42.467Z,58.90
2022-08-17T23:23:13.958Z,58.90
2022-08-17T23:25:44.572Z,58.90
2022-08-17T23:28:13.199Z,58.90
2022-08-17T23:30:44.697Z,58.90
2022-08-17T23:33:21.384Z,59.10
2022-08-17T23:35:49.938Z,59.10
2022-08-17T23:38:18.273Z,58.90
2022-08-17T23:40:46.798Z,58.80
2022-08-17T23:43:25.370Z,59.10
2022-08-17T23:46:03.710Z,59.10
2022-08-17T23:48:35.592Z,59.10
2022-08-17T23:51:10.684Z,59.10
2022-08-17T23:53:46.342Z,59.00
2022-08-17T23:56:15.529Z,59.10
2022-08-17T23:58:45.405Z,59.00
